createdAt,value
2017-05-23T00:00:35.336Z,10
2017-05-23T00:01:15.848Z,15
2017-05-23T00:01:56.372Z,20
2017-05-23T00:02:36.899Z,10
2017-05-23T00:03:17.430Z,10
2017-05-23T00:03:57.948Z,15
2017-05-23T00:04:38.471Z,20
2017-05-23T00:05:19.008Z,10
2017-05-23T00:05:59.515Z,10
2017-05-23T00:06:40.041Z,0
2017-05-23T00:07:20.577Z,10
2017-05-23T00:08:01.097Z,10
2017-05-23T00:08:41.614Z,15
2017-05-23T00:09:22.117Z,20
2017-05-23T00:10:02.651Z,10
2017-05-23T00:10:43.187Z,10
2017-05-23T00:11:23.702Z,0
2017-05-23T00:12:04.278Z,10
2017-05-23T00:12:44.821Z,10
2017-05-23T00:13:25.399Z,15
2017-05-23T00:14:05.878Z,10
2017-05-23T00:14:46.404Z,10
2017-05-23T00:15:26.932Z,15
2017-05-23T00:16:07.453Z,20
2017-05-23T00:16:47.989Z,10
2017-05-23T00:17:28.521Z,10
2017-05-23T00:18:09.058Z,0
2017-05-23T00:18:49.588Z,10
2017-05-23T00:19:30.116Z,10
2017-05-23T00:20:10.641Z,15
2017-05-23T00:20:51.186Z,25
2017-05-23T00:21:31.729Z,10
2017-05-23T00:22:12.240Z,10
2017-05-23T00:22:52.788Z,25
2017-05-23T00:23:33.315Z,20
2017-05-23T00:24:13.832Z,10
2017-05-23T00:24:54.355Z,10
2017-05-23T00:25:35.894Z,15
2017-05-23T00:26:16.437Z,20
2017-05-23T00:26:56.960Z,10
2017-05-23T00:27:37.506Z,10
2017-05-23T00:28:18.012Z,0
2017-05-23T00:28:58.553Z,10
2017-05-23T00:29:39.117Z,10
2017-05-23T00:30:19.657Z,15
2017-05-23T00:31:00.187Z,25
2017-05-23T00:31:40.740Z,10
2017-05-23T00:32:21.257Z,10
2017-05-23T00:33:01.813Z,0
2017-05-23T00:33:42.393Z,10
2017-05-23T00:34:22.933Z,10
2017-05-23T00:35:03.462Z,15
2017-05-23T00:35:44.013Z,20
2017-05-23T00:36:24.558Z,10
2017-05-23T00:37:05.073Z,10
2017-05-23T00:37:45.593Z,15
2017-05-23T00:38:26.108Z,20
2017-05-23T00:39:06.618Z,10
2017-05-23T00:39:47.143Z,10
2017-05-23T00:40:27.647Z,15
2017-05-23T00:41:08.162Z,20
2017-05-23T00:41:48.715Z,10
2017-05-23T00:42:29.243Z,10
2017-05-23T00:43:09.766Z,10
2017-05-23T00:43:50.279Z,0
2017-05-23T00:44:30.819Z,10
2017-05-23T00:45:11.343Z,10
2017-05-23T00:45:51.860Z,10
2017-05-23T00:46:32.383Z,0
2017-05-23T00:47:12.918Z,25
2017-05-23T00:47:53.467Z,10
2017-05-23T00:48:33.970Z,10
2017-05-23T00:49:14.513Z,0
2017-05-23T00:49:55.032Z,15
2017-05-23T00:50:35.568Z,10
2017-05-23T00:51:16.092Z,10
2017-05-23T00:51:56.620Z,0
2017-05-23T00:52:37.171Z,20
2017-05-23T00:53:17.693Z,10
2017-05-23T00:53:58.235Z,10
2017-05-23T00:54:38.777Z,10
2017-05-23T00:55:19.315Z,0
2017-05-23T00:55:59.847Z,15
2017-05-23T00:56:40.370Z,10
2017-05-23T00:57:20.877Z,10
2017-05-23T00:58:01.407Z,25
2017-05-23T00:58:41.943Z,15
2017-05-23T00:59:22.480Z,10
2017-05-23T01:00:03.024Z,10
2017-05-23T01:00:43.572Z,0
2017-05-23T01:01:24.109Z,20
2017-05-23T01:02:04.628Z,10
2017-05-23T01:02:45.145Z,10
2017-05-23T01:03:25.679Z,10
2017-05-23T01:04:07.193Z,0
2017-05-23T01:04:47.716Z,15
2017-05-23T01:05:28.252Z,10
2017-05-23T01:06:08.783Z,10
2017-05-23T01:06:49.337Z,0
2017-05-23T01:07:29.871Z,15
2017-05-23T01:08:10.413Z,10
2017-05-23T01:08:50.948Z,10
2017-05-23T01:09:32.504Z,20
2017-05-23T01:10:13.028Z,20
2017-05-23T01:10:53.535Z,10
2017-05-23T01:11:34.075Z,10
2017-05-23T01:12:14.603Z,0
2017-05-23T01:12:55.134Z,20
2017-05-23T01:13:35.679Z,10
2017-05-23T01:14:16.206Z,10
2017-05-23T01:14:56.722Z,0
2017-05-23T01:15:37.243Z,15
2017-05-23T01:16:17.808Z,10
2017-05-23T01:16:58.349Z,10
2017-05-23T01:17:38.876Z,0
2017-05-23T01:18:19.390Z,15
2017-05-23T01:18:59.915Z,10
2017-05-23T01:19:40.430Z,10
2017-05-23T01:20:20.965Z,0
2017-05-23T01:21:01.488Z,15
2017-05-23T01:21:42.021Z,10
2017-05-23T01:22:22.561Z,10
2017-05-23T01:23:03.107Z,0
2017-05-23T01:23:43.626Z,20
2017-05-23T01:24:24.170Z,10
2017-05-23T01:25:04.713Z,10
2017-05-23T01:25:45.244Z,0
2017-05-23T01:26:25.788Z,15
2017-05-23T01:27:06.347Z,10
2017-05-23T01:27:46.869Z,10
2017-05-23T01:28:27.394Z,20
2017-05-23T01:29:08.934Z,20
2017-05-23T01:29:49.463Z,10
2017-05-23T01:30:29.994Z,10
2017-05-23T01:31:10.529Z,0
2017-05-23T01:31:51.057Z,15
2017-05-23T01:32:31.594Z,10
2017-05-23T01:33:12.111Z,10
2017-05-23T01:33:52.640Z,0
2017-05-23T01:34:33.157Z,15
2017-05-23T01:35:13.682Z,10
2017-05-23T01:35:54.230Z,10
2017-05-23T01:36:34.757Z,0
2017-05-23T01:37:15.323Z,10
2017-05-23T01:37:55.852Z,10
2017-05-23T01:38:36.377Z,10
2017-05-23T01:39:16.934Z,25
2017-05-23T01:39:57.506Z,10
2017-05-23T01:40:38.034Z,10
2017-05-23T01:41:18.556Z,15
2017-05-23T01:41:59.088Z,20
2017-05-23T01:42:39.634Z,10
2017-05-23T01:43:20.184Z,10
2017-05-23T01:44:00.696Z,15
2017-05-23T01:44:41.284Z,20
2017-05-23T01:45:21.837Z,10
2017-05-23T01:46:02.366Z,10
2017-05-23T01:46:42.943Z,10
2017-05-23T01:47:23.468Z,0
2017-05-23T01:48:04.018Z,15
2017-05-23T01:48:45.573Z,10
2017-05-23T01:49:26.119Z,10
2017-05-23T01:50:06.700Z,0
2017-05-23T01:50:47.193Z,15
2017-05-23T01:51:27.734Z,10
2017-05-23T01:52:08.289Z,10
2017-05-23T01:52:49.831Z,0
2017-05-23T01:53:31.373Z,15
2017-05-23T01:54:11.882Z,10
2017-05-23T01:54:52.516Z,10
2017-05-23T01:55:33.083Z,10
2017-05-23T01:56:13.663Z,0
2017-05-23T01:56:54.232Z,15
2017-05-23T01:57:34.760Z,10
2017-05-23T01:58:15.287Z,10
2017-05-23T01:58:55.829Z,15
2017-05-23T01:59:36.385Z,20
2017-05-23T02:00:16.852Z,10
2017-05-23T02:00:57.380Z,10
2017-05-23T02:01:37.926Z,15
2017-05-23T02:02:18.471Z,20
2017-05-23T02:02:59.021Z,10
2017-05-23T02:03:39.588Z,10
2017-05-23T02:04:20.129Z,10
2017-05-23T02:05:00.708Z,15
2017-05-23T02:05:41.212Z,20
2017-05-23T02:06:21.731Z,15
2017-05-23T02:07:02.268Z,10
2017-05-23T02:07:42.820Z,10
2017-05-23T02:08:23.360Z,0
2017-05-23T02:09:03.973Z,15
2017-05-23T02:09:44.509Z,10
2017-05-23T02:10:25.032Z,10
2017-05-23T02:11:05.575Z,0
2017-05-23T02:11:46.133Z,15
2017-05-23T02:12:26.726Z,10
2017-05-23T02:13:07.225Z,10
2017-05-23T02:13:47.756Z,0
2017-05-23T02:14:28.282Z,15
2017-05-23T02:15:08.869Z,10
2017-05-23T02:15:49.421Z,10
2017-05-23T02:16:29.989Z,0
2017-05-23T02:17:12.542Z,20
2017-05-23T02:17:53.055Z,10
2017-05-23T02:18:50.565Z,10
2017-05-23T02:19:31.080Z,15
2017-05-23T02:20:11.586Z,20
2017-05-23T02:20:54.122Z,10
2017-05-23T02:21:35.656Z,10
2017-05-23T02:22:32.852Z,15
2017-05-23T02:23:24.345Z,15
2017-05-23T02:24:05.869Z,15
2017-05-23T02:24:46.421Z,10
2017-05-23T02:25:27.941Z,10
2017-05-23T02:26:08.469Z,10
2017-05-23T02:27:03.550Z,0
2017-05-23T02:27:44.074Z,20
2017-05-23T02:28:24.602Z,10
2017-05-23T02:29:17.044Z,10
2017-05-23T02:29:58.596Z,15
2017-05-23T02:30:39.116Z,20
2017-05-23T02:31:19.640Z,10
2017-05-23T02:32:00.175Z,10
2017-05-23T02:32:40.681Z,15
2017-05-23T02:33:26.051Z,20
2017-05-23T02:34:21.571Z,10
2017-05-23T02:35:08.072Z,10
2017-05-23T02:35:48.595Z,10
2017-05-23T02:36:40.851Z,0
2017-05-23T02:37:23.372Z,20
2017-05-23T02:38:03.896Z,10
2017-05-23T02:38:45.422Z,10
2017-05-23T02:39:26.966Z,15
2017-05-23T02:40:07.468Z,25
2017-05-23T02:40:47.982Z,10
2017-05-23T02:47:02.547Z,10
2017-05-23T02:47:43.075Z,10
2017-05-23T02:48:23.638Z,20
2017-05-23T02:49:04.159Z,10
2017-05-23T02:49:44.697Z,10
2017-05-23T02:50:25.252Z,15
2017-05-23T02:51:05.785Z,20
2017-05-23T02:51:46.299Z,10
2017-05-23T02:52:26.839Z,10
2017-05-23T02:53:07.377Z,15
2017-05-23T02:53:47.905Z,20
2017-05-23T02:54:28.427Z,10
2017-05-23T02:55:08.962Z,10
2017-05-23T02:55:49.475Z,15
2017-05-23T02:56:29.986Z,15
2017-05-23T02:57:10.506Z,20
2017-05-23T02:57:51.063Z,10
2017-05-23T02:58:31.577Z,10
2017-05-23T02:59:12.092Z,0
2017-05-23T02:59:52.607Z,20
2017-05-23T03:00:33.142Z,10
2017-05-23T03:01:13.674Z,10
2017-05-23T03:01:54.185Z,0
2017-05-23T03:02:34.821Z,20
2017-05-23T03:03:15.364Z,10
2017-05-23T03:03:55.880Z,10
2017-05-23T03:04:36.416Z,15
2017-05-23T03:05:16.935Z,20
2017-05-23T03:05:57.463Z,10
2017-05-23T03:06:38.013Z,10
2017-05-23T03:07:18.540Z,10
2017-05-23T03:07:59.067Z,0
2017-05-23T03:08:39.588Z,20
2017-05-23T03:09:20.130Z,10
2017-05-23T03:10:00.644Z,10
2017-05-23T03:10:41.175Z,10
2017-05-23T03:11:21.731Z,10
2017-05-23T03:12:02.664Z,15
2017-05-23T03:12:43.199Z,10
2017-05-23T03:13:23.708Z,10
2017-05-23T03:14:04.226Z,10
2017-05-23T03:14:44.751Z,10
2017-05-23T03:15:25.271Z,10
2017-05-23T03:16:05.849Z,15
2017-05-23T03:16:46.389Z,10
2017-05-23T03:17:26.902Z,15
2017-05-23T03:18:07.433Z,0
2017-05-23T03:18:47.953Z,0
2017-05-23T03:19:28.454Z,0
2017-05-23T03:20:09.008Z,25
2017-05-23T03:20:49.532Z,25
2017-05-23T03:21:30.087Z,25
2017-05-23T03:22:10.658Z,25
2017-05-23T03:22:51.188Z,25
2017-05-23T03:23:31.738Z,25
2017-05-23T03:24:12.264Z,25
2017-05-23T03:24:52.787Z,25
2017-05-23T03:25:33.306Z,25
2017-05-23T03:26:13.812Z,25
2017-05-23T03:26:54.360Z,25
2017-05-23T03:27:34.889Z,25
2017-05-23T03:28:15.443Z,25
2017-05-23T03:28:55.934Z,25
2017-05-23T03:29:36.462Z,25
2017-05-23T03:30:16.990Z,25
2017-05-23T03:30:57.607Z,25
2017-05-23T03:31:38.137Z,25
2017-05-23T03:32:18.695Z,25
2017-05-23T03:32:59.219Z,25
2017-05-23T03:33:39.739Z,15
2017-05-23T03:34:20.304Z,15
2017-05-23T03:35:00.819Z,0
2017-05-23T03:35:41.337Z,20
2017-05-23T03:36:21.850Z,10
2017-05-23T03:37:02.364Z,10
2017-05-23T03:37:42.916Z,10
2017-05-23T03:38:23.466Z,10
2017-05-23T03:39:03.994Z,10
2017-05-23T03:39:44.550Z,10
2017-05-23T03:40:25.090Z,10
2017-05-23T03:41:05.620Z,10
2017-05-23T03:41:46.156Z,10
2017-05-23T03:42:26.691Z,10
2017-05-23T03:43:07.217Z,15
2017-05-23T03:43:47.768Z,15
2017-05-23T03:44:28.279Z,15
2017-05-23T03:45:08.815Z,15
2017-05-23T03:45:49.332Z,15
2017-05-23T03:46:29.856Z,15
2017-05-23T03:47:10.375Z,15
2017-05-23T03:47:50.966Z,15
2017-05-23T03:48:31.489Z,15
2017-05-23T03:49:12.022Z,15
2017-05-23T03:49:52.544Z,15
2017-05-23T03:50:49.593Z,15
2017-05-23T03:51:36.869Z,15
2017-05-23T03:52:17.391Z,15
2017-05-23T03:52:57.914Z,15
2017-05-23T04:08:11.616Z,15
2017-05-23T04:08:52.147Z,15
2017-05-23T04:09:32.701Z,15
2017-05-23T04:10:13.233Z,15
2017-05-23T04:10:53.755Z,20
2017-05-23T04:11:34.265Z,20
2017-05-23T04:12:14.793Z,20
2017-05-23T04:12:55.335Z,20
2017-05-23T04:13:35.864Z,10
2017-05-23T04:14:16.398Z,15
2017-05-23T04:14:56.930Z,15
2017-05-23T04:15:37.449Z,15
2017-05-23T04:16:17.965Z,15
2017-05-23T04:16:58.472Z,15
2017-05-23T04:17:39.025Z,15
2017-05-23T04:18:19.588Z,15
2017-05-23T04:19:00.118Z,15
2017-05-23T04:19:40.654Z,15
2017-05-23T04:20:21.190Z,15
2017-05-23T04:21:01.737Z,15
2017-05-23T04:21:42.286Z,15
2017-05-23T04:22:22.811Z,15
2017-05-23T04:23:03.340Z,15
2017-05-23T04:23:43.872Z,15
2017-05-23T04:24:24.389Z,15
2017-05-23T04:25:04.912Z,15
2017-05-23T04:25:45.442Z,15
2017-05-23T04:26:25.976Z,15
2017-05-23T04:27:06.493Z,15
2017-05-23T04:27:47.053Z,15
2017-05-23T04:28:27.543Z,20
2017-05-23T04:29:08.080Z,20
2017-05-23T04:29:48.624Z,20
2017-05-23T04:30:29.157Z,20
2017-05-23T04:31:09.686Z,20
2017-05-23T04:31:50.211Z,20
2017-05-23T04:32:30.737Z,20
2017-05-23T04:33:11.259Z,20
2017-05-23T04:33:51.782Z,20
2017-05-23T04:34:32.331Z,20
2017-05-23T04:35:12.875Z,20
2017-05-23T04:35:53.408Z,20
2017-05-23T04:36:33.929Z,20
2017-05-23T04:37:15.445Z,20
2017-05-23T04:37:55.982Z,20
2017-05-23T04:38:36.480Z,20
2017-05-23T04:39:17.020Z,20
2017-05-23T04:39:57.606Z,20
2017-05-23T04:40:38.138Z,20
2017-05-23T04:41:18.689Z,20
2017-05-23T04:41:59.211Z,20
2017-05-23T04:42:39.733Z,10
2017-05-23T04:43:20.253Z,15
2017-05-23T04:44:00.855Z,15
2017-05-23T04:44:41.390Z,15
2017-05-23T04:45:21.910Z,15
2017-05-23T04:46:02.435Z,15
2017-05-23T04:46:42.974Z,15
2017-05-23T04:47:23.572Z,15
2017-05-23T04:48:04.054Z,15
2017-05-23T04:48:44.620Z,15
2017-05-23T04:49:25.144Z,15
2017-05-23T04:50:05.696Z,15
2017-05-23T04:50:46.236Z,15
2017-05-23T04:51:26.766Z,15
2017-05-23T04:52:07.298Z,15
2017-05-23T04:52:47.822Z,10
2017-05-23T04:53:28.357Z,20
2017-05-23T04:54:08.886Z,20
2017-05-23T04:54:49.680Z,20
2017-05-23T04:55:30.209Z,20
2017-05-23T04:56:10.745Z,20
2017-05-23T04:56:51.262Z,20
2017-05-23T04:57:31.805Z,20
2017-05-23T04:58:12.322Z,20
2017-05-23T04:58:52.881Z,20
2017-05-23T04:59:33.419Z,20
2017-05-23T05:00:13.925Z,20
2017-05-23T05:00:54.470Z,15
2017-05-23T05:01:35.017Z,15
2017-05-23T05:02:15.553Z,15
2017-05-23T05:02:56.080Z,15
2017-05-23T05:03:36.611Z,20
2017-05-23T05:04:17.155Z,20
2017-05-23T05:04:57.671Z,20
2017-05-23T05:05:53.115Z,20
2017-05-23T05:06:34.647Z,15
2017-05-23T05:07:15.174Z,20
2017-05-23T05:07:56.694Z,15
2017-05-23T05:08:37.212Z,20
2017-05-23T05:09:17.753Z,20
2017-05-23T05:09:58.258Z,10
2017-05-23T05:10:39.789Z,15
2017-05-23T05:11:25.915Z,15
2017-05-23T05:12:07.468Z,15
2017-05-23T05:12:49.987Z,15
2017-05-23T05:13:42.414Z,15
2017-05-23T05:14:22.938Z,15
2017-05-23T05:15:04.452Z,15
2017-05-23T05:15:44.957Z,15
2017-05-23T05:16:25.471Z,15
2017-05-23T05:17:06.986Z,15
2017-05-23T05:17:47.560Z,15
2017-05-23T05:18:28.070Z,15
2017-05-23T05:19:19.415Z,15
2017-05-23T05:20:01.943Z,15
2017-05-23T05:20:42.481Z,15
2017-05-23T05:21:23.978Z,15
2017-05-23T05:22:05.512Z,15
2017-05-23T05:22:51.911Z,15
2017-05-23T05:23:32.428Z,15
2017-05-23T05:24:19.915Z,15
2017-05-23T05:25:06.410Z,15
2017-05-23T05:25:52.912Z,10
2017-05-23T05:26:33.462Z,20
2017-05-23T05:27:13.983Z,20
2017-05-23T05:27:56.492Z,20
2017-05-23T05:28:37.029Z,20
2017-05-23T05:29:17.542Z,10
2017-05-23T05:30:08.909Z,10
2017-05-23T05:30:49.435Z,20
2017-05-23T05:31:29.969Z,15
2017-05-23T05:32:10.519Z,15
2017-05-23T05:32:51.023Z,15
2017-05-23T05:33:31.551Z,15
2017-05-23T05:34:12.099Z,15
2017-05-23T05:34:52.635Z,15
2017-05-23T05:35:33.169Z,15
2017-05-23T05:36:13.720Z,15
2017-05-23T05:36:54.254Z,15
2017-05-23T05:37:34.773Z,15
2017-05-23T05:38:15.353Z,15
2017-05-23T05:38:55.872Z,15
2017-05-23T05:39:36.420Z,15
2017-05-23T05:40:16.987Z,15
2017-05-23T05:40:57.496Z,15
2017-05-23T05:41:38.051Z,15
2017-05-23T05:42:18.568Z,15
2017-05-23T05:42:59.108Z,15
2017-05-23T05:43:39.662Z,20
2017-05-23T05:44:20.196Z,20
2017-05-23T05:45:00.713Z,20
2017-05-23T05:45:41.274Z,15
2017-05-23T05:46:21.783Z,15
2017-05-23T05:47:02.325Z,15
2017-05-23T05:47:42.864Z,5
2017-05-23T05:48:23.410Z,0
2017-05-23T05:49:03.959Z,10
2017-05-23T05:49:44.501Z,10
2017-05-23T05:50:25.030Z,10
2017-05-23T05:51:05.550Z,10
2017-05-23T05:51:46.070Z,10
2017-05-23T05:52:26.603Z,10
2017-05-23T05:53:07.129Z,10
2017-05-23T05:53:47.655Z,10
2017-05-23T05:54:28.209Z,10
2017-05-23T05:55:08.757Z,10
2017-05-23T05:55:49.257Z,10
2017-05-23T05:56:29.809Z,10
2017-05-23T05:57:10.352Z,10
2017-05-23T05:57:50.897Z,10
2017-05-23T05:58:31.418Z,10
2017-05-23T05:59:11.948Z,10
2017-05-23T05:59:52.514Z,10
2017-05-23T06:00:33.060Z,10
2017-05-23T06:01:13.598Z,10
2017-05-23T06:01:54.113Z,10
2017-05-23T06:02:34.699Z,10
2017-05-23T06:03:15.220Z,10
2017-05-23T06:03:55.759Z,10
2017-05-23T06:04:36.305Z,10
2017-05-23T06:05:16.811Z,10
2017-05-23T06:05:57.362Z,10
2017-05-23T06:06:37.887Z,10
2017-05-23T06:07:18.403Z,10
2017-05-23T07:03:19.744Z,40
2017-05-23T07:04:06.982Z,10
2017-05-23T07:04:48.484Z,10
2017-05-23T07:05:28.993Z,10
2017-05-23T07:06:14.488Z,10
2017-05-23T07:06:55.057Z,10
2017-05-23T07:07:40.167Z,10
2017-05-23T07:08:25.465Z,10
2017-05-23T07:09:05.997Z,10
2017-05-23T07:09:47.528Z,10
2017-05-23T07:10:28.030Z,10
2017-05-23T07:11:08.551Z,10
2017-05-23T07:11:49.091Z,10
2017-05-23T07:12:31.630Z,10
2017-05-23T07:13:12.157Z,10
2017-05-23T07:13:57.492Z,10
2017-05-23T07:14:39.268Z,10
2017-05-23T07:15:25.483Z,10
2017-05-23T07:16:10.969Z,10
2017-05-23T07:16:53.479Z,10
2017-05-23T07:17:35.194Z,10
2017-05-23T07:18:15.689Z,10
2017-05-23T07:18:58.276Z,10
2017-05-23T07:19:39.795Z,10
2017-05-23T07:20:20.327Z,10
2017-05-23T07:21:01.867Z,10
2017-05-23T07:21:52.969Z,10
2017-05-23T07:22:33.500Z,10
2017-05-23T07:23:29.990Z,10
2017-05-23T07:24:11.516Z,10
2017-05-23T07:25:08.084Z,10
2017-05-23T07:25:49.756Z,10
2017-05-23T07:26:35.021Z,10
2017-05-23T07:27:15.556Z,10
2017-05-23T07:28:08.731Z,10
2017-05-23T07:28:54.979Z,10
2017-05-23T07:29:35.483Z,10
2017-05-23T07:30:18.007Z,10
2017-05-23T07:30:58.528Z,10
2017-05-23T07:31:39.075Z,10
2017-05-23T07:32:20.605Z,10
2017-05-23T07:33:11.984Z,10
2017-05-23T07:34:04.291Z,10
2017-05-23T07:34:44.801Z,10
2017-05-23T07:35:25.346Z,10
2017-05-23T07:36:05.893Z,10
2017-05-23T07:37:01.288Z,10
2017-05-23T07:37:41.810Z,10
2017-05-23T07:38:23.322Z,10
2017-05-23T07:39:09.490Z,10
2017-05-23T07:39:56.793Z,10
2017-05-23T07:40:37.294Z,10
2017-05-23T07:41:24.719Z,10
2017-05-23T07:42:20.982Z,10
2017-05-23T07:43:02.507Z,10
2017-05-23T07:43:44.033Z,10
2017-05-23T07:44:31.492Z,10
2017-05-23T07:45:14.021Z,10
2017-05-23T07:45:54.634Z,10
2017-05-23T07:46:35.145Z,10
2017-05-23T07:47:15.668Z,10
2017-05-23T07:47:56.194Z,10
2017-05-23T07:48:36.733Z,10
2017-05-23T07:49:17.282Z,10
2017-05-23T07:49:58.791Z,10
2017-05-23T07:50:40.309Z,10
2017-05-23T07:51:20.856Z,10
2017-05-23T07:52:06.184Z,10
2017-05-23T07:52:46.745Z,10
2017-05-23T07:53:31.796Z,10
2017-05-23T07:54:12.308Z,10
2017-05-23T07:54:59.698Z,10
2017-05-23T07:55:41.222Z,10
2017-05-23T07:56:21.757Z,10
2017-05-23T07:57:02.279Z,10
2017-05-23T07:57:42.782Z,10
2017-05-23T07:58:23.316Z,10
2017-05-23T07:59:05.831Z,10
2017-05-23T07:59:46.352Z,10
2017-05-23T08:00:32.723Z,10
2017-05-23T08:01:15.262Z,10
2017-05-23T08:02:02.702Z,10
2017-05-23T08:02:43.211Z,10
2017-05-23T08:03:25.783Z,10
2017-05-23T08:04:08.297Z,10
2017-05-23T08:04:49.830Z,10
2017-05-23T08:05:30.352Z,10
2017-05-23T08:06:11.895Z,10
2017-05-23T08:06:52.418Z,10
2017-05-23T08:07:43.492Z,10
2017-05-23T08:08:24.018Z,10
2017-05-23T08:09:04.561Z,10
2017-05-23T08:09:45.065Z,10
2017-05-23T08:10:30.502Z,10
2017-05-23T08:11:17.312Z,10
2017-05-23T08:11:57.805Z,10
2017-05-23T08:12:39.361Z,10
2017-05-23T08:13:19.861Z,10
2017-05-23T08:14:01.460Z,10
2017-05-23T08:14:46.730Z,10
2017-05-23T08:15:28.267Z,10
2017-05-23T08:16:08.790Z,10
2017-05-23T08:16:51.307Z,10
2017-05-23T08:17:31.812Z,10
2017-05-23T08:18:12.307Z,10
2017-05-23T08:18:53.843Z,10
2017-05-23T08:19:36.377Z,10
2017-05-23T08:20:16.903Z,10
2017-05-23T08:20:59.435Z,10
2017-05-23T08:21:40.926Z,10
2017-05-23T08:22:23.440Z,10
2017-05-23T08:23:05.966Z,10
2017-05-23T08:23:47.483Z,10
2017-05-23T08:24:29.035Z,10
2017-05-23T08:25:10.573Z,10
2017-05-23T08:25:51.091Z,10
2017-05-23T08:26:31.609Z,10
2017-05-23T08:27:12.138Z,10
2017-05-23T08:27:52.651Z,10
2017-05-23T08:28:33.160Z,10
2017-05-23T08:29:13.753Z,10
2017-05-23T08:29:54.271Z,10
2017-05-23T08:30:34.849Z,10
2017-05-23T08:31:15.382Z,10
2017-05-23T08:31:55.906Z,10
2017-05-23T08:32:36.524Z,10
2017-05-23T08:33:17.025Z,10
2017-05-23T08:33:57.543Z,10
2017-05-23T08:34:38.132Z,10
2017-05-23T08:35:18.649Z,10
2017-05-23T08:35:59.161Z,10
2017-05-23T08:36:39.711Z,10
2017-05-23T08:37:20.248Z,10
2017-05-23T08:38:00.742Z,10
2017-05-23T08:38:41.244Z,10
2017-05-23T08:39:21.756Z,10
2017-05-23T08:40:02.286Z,10
2017-05-23T08:40:42.825Z,10
2017-05-23T08:41:23.351Z,10
2017-05-23T08:42:03.863Z,10
2017-05-23T08:42:44.435Z,10
2017-05-23T08:43:24.984Z,10
2017-05-23T08:44:05.492Z,10
2017-05-23T08:44:46.010Z,10
2017-05-23T08:45:26.534Z,10
2017-05-23T08:46:07.096Z,10
2017-05-23T08:46:47.607Z,10
2017-05-23T08:47:28.113Z,10
2017-05-23T08:48:08.615Z,10
2017-05-23T08:48:49.143Z,10
2017-05-23T08:49:29.702Z,10
2017-05-23T08:50:10.211Z,10
2017-05-23T08:50:50.756Z,10
2017-05-23T08:51:31.282Z,10
2017-05-23T08:52:11.858Z,10
2017-05-23T08:52:52.382Z,10
2017-05-23T08:53:32.934Z,10
2017-05-23T08:54:13.448Z,10
2017-05-23T08:54:53.991Z,10
2017-05-23T08:55:34.499Z,10
2017-05-23T08:56:15.061Z,10
2017-05-23T08:56:55.588Z,10
2017-05-23T08:57:36.110Z,10
2017-05-23T08:58:16.637Z,10
2017-05-23T08:58:57.151Z,10
2017-05-23T08:59:37.665Z,10
2017-05-23T09:00:18.200Z,10
2017-05-23T09:00:58.737Z,10
2017-05-23T09:01:39.269Z,10
2017-05-23T09:02:19.801Z,10
2017-05-23T09:03:00.332Z,10
2017-05-23T09:03:40.904Z,10
2017-05-23T09:04:21.423Z,10
2017-05-23T09:05:01.958Z,10
2017-05-23T09:05:42.503Z,10
2017-05-23T09:06:23.006Z,10
2017-05-23T09:07:03.537Z,10
2017-05-23T09:07:44.074Z,10
2017-05-23T09:08:24.610Z,10
2017-05-23T09:09:05.163Z,10
2017-05-23T09:09:45.687Z,10
2017-05-23T09:10:26.211Z,10
2017-05-23T09:11:06.756Z,10
2017-05-23T09:11:47.304Z,10
2017-05-23T09:12:27.813Z,10
2017-05-23T09:13:08.325Z,10
2017-05-23T09:13:48.865Z,10
2017-05-23T09:14:29.408Z,10
2017-05-23T09:15:09.917Z,10
2017-05-23T09:15:50.454Z,10
2017-05-23T09:16:30.979Z,10
2017-05-23T09:17:11.503Z,10
2017-05-23T09:17:52.045Z,10
2017-05-23T09:18:32.593Z,10
2017-05-23T09:19:13.133Z,10
2017-05-23T09:19:53.661Z,10
2017-05-23T09:20:34.248Z,10
2017-05-23T09:21:15.904Z,10
2017-05-23T09:21:56.474Z,10
2017-05-23T09:22:36.967Z,55
2017-05-23T09:23:17.482Z,5120
2017-05-23T09:23:58.009Z,47355
2017-05-23T09:24:38.577Z,40975
2017-05-23T09:25:19.044Z,46080
2017-05-23T09:25:59.572Z,6395
2017-05-23T09:26:40.109Z,5130
2017-05-23T09:27:20.657Z,0
2017-05-23T09:28:01.218Z,0
2017-05-23T09:28:41.775Z,0
2017-05-23T09:29:22.376Z,0
2017-05-23T09:30:02.841Z,0
2017-05-23T09:30:43.367Z,0
2017-05-23T09:31:23.883Z,0
2017-05-23T09:32:04.420Z,0
2017-05-23T09:32:45.267Z,0
2017-05-23T09:33:25.816Z,0
2017-05-23T09:34:06.918Z,0
2017-05-23T09:34:47.468Z,0
2017-05-23T09:35:28.026Z,0
2017-05-23T09:36:08.625Z,0
2017-05-23T09:36:49.221Z,0
2017-05-23T09:37:29.765Z,0
2017-05-23T09:38:10.303Z,0
2017-05-23T09:38:50.973Z,0
2017-05-23T09:39:31.625Z,13312
2017-05-23T09:40:12.303Z,6395
2017-05-23T09:40:52.929Z,6395
2017-05-23T09:41:33.482Z,0
2017-05-23T09:42:14.129Z,0
2017-05-23T09:42:54.755Z,0
2017-05-23T09:43:35.269Z,0
2017-05-23T09:44:15.796Z,0
2017-05-23T09:44:56.408Z,0
2017-05-23T09:45:36.961Z,5120
2017-05-23T09:46:17.566Z,5120
2017-05-23T09:46:58.143Z,13312
2017-05-23T09:47:38.714Z,46080
2017-05-23T09:48:19.255Z,5130
2017-05-23T09:48:59.813Z,46080
2017-05-23T09:49:40.358Z,5
2017-05-23T09:50:20.907Z,0
2017-05-23T09:51:01.463Z,5
2017-05-23T09:51:42.127Z,5
2017-05-23T09:52:22.703Z,5
2017-05-23T09:53:03.213Z,5
2017-05-23T09:53:43.810Z,5
2017-05-23T09:54:24.496Z,5
2017-05-23T09:55:05.038Z,5
2017-05-23T09:55:45.588Z,5
2017-05-23T09:56:26.190Z,5
2017-05-23T09:57:06.753Z,5
2017-05-23T09:57:47.313Z,5
2017-05-23T09:58:27.894Z,10
2017-05-23T09:59:08.511Z,13312
2017-05-23T09:59:49.110Z,0
2017-05-23T10:00:29.725Z,1285
2017-05-23T10:01:11.297Z,1285
2017-05-23T10:01:51.944Z,1285
2017-05-23T10:02:32.543Z,1285
2017-05-23T10:03:13.086Z,1285
2017-05-23T10:03:53.671Z,1285
2017-05-23T10:04:34.265Z,10
2017-05-23T10:05:14.845Z,5
2017-05-23T10:05:55.356Z,5
2017-05-23T10:06:36.925Z,0
2017-05-23T10:07:17.470Z,0
2017-05-23T10:07:58.050Z,0
2017-05-23T10:08:38.778Z,46080
2017-05-23T10:09:19.354Z,46080
2017-05-23T10:10:00.007Z,46080
2017-05-23T10:10:40.540Z,46080
2017-05-23T10:11:21.100Z,46080
2017-05-23T10:12:01.642Z,46080
2017-05-23T10:12:42.236Z,46080
2017-05-23T10:13:22.755Z,15
2017-05-23T10:14:03.355Z,15
2017-05-23T10:14:43.962Z,15
2017-05-23T10:15:24.542Z,15
2017-05-23T10:16:05.053Z,15
2017-05-23T10:16:45.671Z,15
2017-05-23T10:17:26.246Z,15
2017-05-23T10:18:06.754Z,15
2017-05-23T10:18:47.379Z,15
2017-05-23T10:19:28.007Z,15
2017-05-23T10:20:08.539Z,15
2017-05-23T10:20:49.192Z,15
2017-05-23T10:21:29.749Z,15
2017-05-23T10:22:10.284Z,10
2017-05-23T10:22:50.919Z,0
2017-05-23T10:23:31.429Z,0
2017-05-23T10:24:12.004Z,15
2017-05-23T10:24:52.533Z,15
2017-05-23T10:25:33.130Z,40975
2017-05-23T10:26:13.683Z,5
2017-05-23T10:26:54.276Z,0
2017-05-23T10:27:34.807Z,0
2017-05-23T10:28:15.428Z,0
2017-05-23T10:28:55.944Z,0
2017-05-23T10:29:36.464Z,0
2017-05-23T10:30:17.082Z,0
2017-05-23T10:30:57.626Z,0
2017-05-23T10:31:38.160Z,0
2017-05-23T10:32:18.832Z,0
2017-05-23T10:32:59.361Z,0
2017-05-23T10:33:39.914Z,0
2017-05-23T10:34:20.564Z,0
2017-05-23T10:35:01.099Z,0
2017-05-23T10:35:41.632Z,0
2017-05-23T10:36:22.186Z,0
2017-05-23T10:37:02.806Z,0
2017-05-23T10:37:43.400Z,0
2017-05-23T10:38:23.919Z,0
2017-05-23T10:39:04.503Z,0
2017-05-23T10:39:55.660Z,0
2017-05-23T10:40:36.254Z,0
2017-05-23T10:41:16.784Z,0
2017-05-23T10:42:02.325Z,0
2017-05-23T10:42:42.900Z,0
2017-05-23T10:43:25.528Z,0
2017-05-23T10:44:06.034Z,0
2017-05-23T10:44:46.645Z,0
2017-05-23T10:45:32.146Z,0
2017-05-23T10:46:12.741Z,0
2017-05-23T10:46:53.249Z,0
2017-05-23T10:47:33.850Z,0
2017-05-23T10:48:14.449Z,0
2017-05-23T10:48:54.990Z,0
2017-05-23T10:49:35.542Z,0
2017-05-23T10:50:16.101Z,0
2017-05-23T10:50:56.650Z,0
2017-05-23T10:51:38.225Z,0
2017-05-23T10:52:18.746Z,0
2017-05-23T10:53:01.379Z,0
2017-05-23T10:53:46.638Z,0
2017-05-23T10:54:27.181Z,5
2017-05-23T10:55:12.288Z,5
2017-05-23T10:55:54.852Z,5
2017-05-23T10:56:35.417Z,5
2017-05-23T10:57:21.824Z,5
2017-05-23T10:58:02.355Z,5
2017-05-23T10:58:49.640Z,30
2017-05-23T10:59:31.213Z,30
2017-05-23T11:00:11.874Z,30
2017-05-23T11:00:52.417Z,15
2017-05-23T11:01:32.969Z,15
2017-05-23T11:02:14.536Z,15
2017-05-23T11:02:55.042Z,15
2017-05-23T11:03:47.368Z,15
2017-05-23T11:04:27.967Z,15
2017-05-23T11:05:08.490Z,15